Time;durP1;ratioP1;P1;durP2;ratioP2;P2;SDS_P1;SDS_P2;PMS_P1;PMS_P2;Temp;Humidity;BMP_temperature;BMP_pressure;BME280_temperature;BME280_humidity;BME280_pressure;Samples;Min_cycle;Max_cycle;Signal;HPM_P1;HPM_P2
2023/04/22 00:00:29;;;;;;;7.32;4.80;;;13.50;70.30;;;;;;4993036;28;20051;-70
2023/04/22 00:02:56;;;;;;;7.82;4.95;;;13.50;70.10;;;;;;4968897;28;20051;-70
2023/04/22 00:05:23;;;;;;;7.03;4.37;;;13.50;70.00;;;;;;4979482;28;20054;-70
2023/04/22 00:07:51;;;;;;;8.57;4.80;;;13.50;69.80;;;;;;4986083;28;20057;-70
2023/04/22 00:10:18;;;;;;;8.63;5.32;;;13.50;69.90;;;;;;4989998;28;20058;-70
2023/04/22 00:12:45;;;;;;;6.82;4.85;;;13.50;69.60;;;;;;4988668;28;20053;-70
2023/04/22 00:15:12;;;;;;;7.68;4.50;;;13.50;69.60;;;;;;4990366;28;20130;-70
2023/04/22 00:17:41;;;;;;;6.10;3.90;;;13.50;69.40;;;;;;4972171;28;20688;-70
2023/04/22 00:20:10;;;;;;;5.70;2.65;;;13.50;69.30;;;;;;4975587;28;20055;-70
2023/04/22 00:22:37;;;;;;;5.15;3.10;;;13.50;69.30;;;;;;4987927;28;20043;-69
2023/04/22 00:25:06;;;;;;;7.30;4.68;;;13.50;68.90;;;;;;4987007;28;20111;-70
2023/04/22 00:27:33;;;;;;;8.35;4.57;;;13.50;68.90;;;;;;4989878;28;20105;-69
2023/04/22 00:30:00;;;;;;;6.90;4.00;;;13.50;68.90;;;;;;4987663;28;20093;-70
2023/04/22 00:32:27;;;;;;;6.72;4.32;;;13.40;68.90;;;;;;4986208;28;20054;-70
2023/04/22 00:34:56;;;;;;;6.20;3.90;;;13.30;68.90;;;;;;4986861;28;20042;-70
2023/04/22 00:37:23;;;;;;;6.45;3.85;;;13.30;68.70;;;;;;4988201;28;20138;-70
2023/04/22 00:39:50;;;;;;;5.25;3.35;;;13.30;68.70;;;;;;5001278;28;20137;-70
2023/04/22 00:42:18;;;;;;;6.17;3.70;;;13.20;68.60;;;;;;4988273;28;20474;-69
2023/04/22 00:44:47;;;;;;;6.20;3.97;;;13.10;68.70;;;;;;4987786;28;20081;-70
2023/04/22 00:47:15;;;;;;;5.90;3.70;;;13.10;68.70;;;;;;4988195;28;20058;-70
2023/04/22 00:49:42;;;;;;;4.93;2.90;;;13.00;68.70;;;;;;4987035;28;20527;-70
2023/04/22 00:52:09;;;;;;;4.63;2.47;;;13.00;68.70;;;;;;4987737;28;20054;-70
2023/04/22 00:54:36;;;;;;;5.00;3.33;;;13.00;68.60;;;;;;5004397;28;20157;-69
2023/04/22 00:57:05;;;;;;;5.78;3.50;;;13.00;68.50;;;;;;4985410;28;20058;-69
2023/04/22 00:59:34;;;;;;;5.40;3.50;;;12.90;68.30;;;;;;5003790;28;20051;-69
2023/04/22 01:02:01;;;;;;;5.95;4.07;;;12.90;68.40;;;;;;4987623;28;21170;-70
2023/04/22 01:04:29;;;;;;;6.03;3.50;;;12.80;68.40;;;;;;4988369;28;20058;-70
2023/04/22 01:06:56;;;;;;;5.10;3.07;;;12.80;68.40;;;;;;5002482;28;20061;-69
2023/04/22 01:09:23;;;;;;;4.95;2.92;;;12.80;68.40;;;;;;4985513;28;20508;-70
2023/04/22 01:11:50;;;;;;;5.05;2.95;;;12.80;68.30;;;;;;5002621;28;20135;-69
2023/04/22 01:14:17;;;;;;;4.55;2.70;;;12.70;68.30;;;;;;4984385;28;20047;-70
2023/04/22 01:16:47;;;;;;;4.70;2.72;;;12.70;68.30;;;;;;4987764;28;20051;-71
2023/04/22 01:19:14;;;;;;;4.70;2.90;;;12.60;68.30;;;;;;5001918;28;20319;-69
2023/04/22 01:21:43;;;;;;;4.45;2.75;;;12.50;68.30;;;;;;5002490;28;20130;-70
2023/04/22 01:24:12;;;;;;;4.30;2.40;;;12.50;68.40;;;;;;4987546;28;20177;-69
2023/04/22 01:26:39;;;;;;;4.32;2.50;;;12.50;68.40;;;;;;4982679;28;20051;-70
2023/04/22 01:29:06;;;;;;;3.80;2.03;;;12.50;68.40;;;;;;4967771;28;20705;-70
2023/04/22 01:31:34;;;;;;;4.30;2.30;;;12.50;68.40;;;;;;4981597;28;20117;-70
2023/04/22 01:34:01;;;;;;;4.20;2.47;;;12.40;68.30;;;;;;5002746;28;20540;-72
2023/04/22 01:36:28;;;;;;;4.65;2.90;;;12.30;68.30;;;;;;4985963;28;20051;-69
2023/04/22 01:38:56;;;;;;;4.78;3.10;;;12.20;68.40;;;;;;5001255;28;20051;-69
2023/04/22 01:41:28;;;;;;;5.82;3.88;;;12.10;68.70;;;;;;5002228;28;20061;-70
2023/04/22 01:43:58;;;;;;;4.97;2.97;;;12.10;68.90;;;;;;4986016;28;20400;-70
2023/04/22 01:46:25;;;;;;;4.13;2.00;;;12.10;69.10;;;;;;4983120;28;20621;-69
2023/04/22 01:48:52;;;;;;;4.70;2.90;;;12.00;69.10;;;;;;4985668;28;20054;-69
2023/04/22 01:51:20;;;;;;;5.05;3.08;;;12.00;69.10;;;;;;4985675;28;20053;-69
2023/04/22 01:53:47;;;;;;;5.20;3.03;;;12.00;69.20;;;;;;4987434;28;20050;-69
2023/04/22 01:56:14;;;;;;;11.30;3.30;;;12.00;69.00;;;;;;4999008;28;20044;-69
2023/04/22 01:58:43;;;;;;;14.88;3.30;;;12.00;69.10;;;;;;4982509;28;20051;-69
2023/04/22 02:01:11;;;;;;;4.90;2.70;;;11.90;69.30;;;;;;4937577;28;1085603;-70
2023/04/22 02:03:38;;;;;;;11.07;2.87;;;11.90;69.20;;;;;;4981165;28;20538;-70
2023/04/22 02:06:06;;;;;;;4.80;2.88;;;11.90;69.30;;;;;;4967742;28;20271;-69
2023/04/22 02:08:33;;;;;;;4.78;2.53;;;11.90;69.20;;;;;;4972324;28;20057;-70
2023/04/22 02:11:00;;;;;;;4.80;2.67;;;11.90;69.20;;;;;;4986066;28;20771;-69
2023/04/22 02:13:34;;;;;;;5.00;2.80;;;11.90;69.20;;;;;;4974274;28;20563;-69
2023/04/22 02:16:02;;;;;;;4.77;2.77;;;11.80;69.10;;;;;;4987999;28;20130;-69
2023/04/22 02:18:29;;;;;;;6.15;3.03;;;11.80;69.00;;;;;;4986197;28;20365;-69
2023/04/22 02:20:56;;;;;;;7.38;2.35;;;11.80;69.20;;;;;;4975842;28;20051;-69
2023/04/22 02:23:23;;;;;;;4.93;2.90;;;11.80;69.10;;;;;;4988046;28;20053;-69
2023/04/22 02:25:51;;;;;;;3.92;2.22;;;11.70;68.90;;;;;;5002758;28;20045;-69
2023/04/22 02:28:19;;;;;;;4.53;2.93;;;11.70;68.90;;;;;;4983628;28;20129;-69
2023/04/22 02:30:46;;;;;;;5.20;2.80;;;11.70;68.90;;;;;;4985936;28;20685;-70
2023/04/22 02:33:16;;;;;;;5.22;2.80;;;11.70;68.90;;;;;;4987017;28;20055;-69
2023/04/22 02:35:43;;;;;;;6.63;2.95;;;11.70;68.80;;;;;;4987993;28;20472;-69
2023/04/22 02:38:17;;;;;;;5.20;1.95;;;11.60;68.90;;;;;;4987202;28;20047;-69
2023/04/22 02:40:44;;;;;;;6.37;2.27;;;11.60;68.90;;;;;;4987346;28;20802;-69
2023/04/22 02:43:12;;;;;;;5.00;2.70;;;11.50;68.80;;;;;;4988046;28;20360;-69
2023/04/22 02:45:40;;;;;;;4.20;2.30;;;11.50;68.70;;;;;;4986416;28;20090;-69
2023/04/22 02:48:07;;;;;;;5.90;2.10;;;11.40;68.80;;;;;;5002768;28;20050;-69
2023/04/22 02:50:35;;;;;;;7.13;2.13;;;11.40;68.90;;;;;;4986013;28;20055;-69
2023/04/22 02:53:02;;;;;;;5.70;2.43;;;11.30;68.70;;;;;;4983524;28;20160;-69
2023/04/22 02:55:29;;;;;;;3.90;2.53;;;11.20;68.70;;;;;;4986208;28;20790;-69
2023/04/22 02:57:56;;;;;;;3.70;2.30;;;11.10;68.80;;;;;;4985824;28;20047;-69
2023/04/22 03:00:23;;;;;;;3.70;2.40;;;11.10;69.00;;;;;;5001939;28;20173;-69
2023/04/22 03:02:50;;;;;;;4.68;2.58;;;11.10;69.20;;;;;;4986381;28;20522;-69
2023/04/22 03:05:20;;;;;;;4.00;2.23;;;11.10;69.20;;;;;;4986163;28;20576;-69
2023/04/22 03:07:48;;;;;;;3.40;2.20;;;11.10;69.30;;;;;;5002600;28;20282;-69
2023/04/22 03:10:16;;;;;;;4.07;2.40;;;11.10;69.40;;;;;;4982831;28;20144;-69
2023/04/22 03:12:43;;;;;;;3.50;1.90;;;11.00;69.30;;;;;;4986174;28;20130;-69
2023/04/22 03:15:12;;;;;;;4.63;2.28;;;11.00;69.40;;;;;;4986279;28;20126;-69
2023/04/22 03:17:39;;;;;;;3.73;2.20;;;11.00;69.40;;;;;;4986313;28;20360;-69
2023/04/22 03:20:11;;;;;;;3.53;1.92;;;11.00;69.30;;;;;;4985257;28;20247;-69
2023/04/22 03:22:37;;;;;;;3.35;1.80;;;11.00;69.10;;;;;;4983033;28;20446;-69
2023/04/22 03:25:10;;;;;;;4.28;2.33;;;11.00;69.10;;;;;;4989534;28;20082;-69
2023/04/22 03:27:37;;;;;;;4.50;2.50;;;11.00;69.00;;;;;;4986871;28;20051;-69
2023/04/22 03:30:05;;;;;;;4.57;2.10;;;11.00;69.00;;;;;;4988654;28;20047;-69
2023/04/22 03:32:32;;;;;;;4.80;1.38;;;11.00;69.00;;;;;;4989659;28;20402;-69
2023/04/22 03:35:19;;;;;;;4.35;2.00;;;10.90;69.10;;;;;;4988832;28;20055;-69
2023/04/22 03:37:49;;;;;;;3.90;2.00;;;10.90;68.90;;;;;;4989178;28;20224;-69
2023/04/22 03:40:21;;;;;;;6.95;2.10;;;10.80;68.90;;;;;;4988622;28;20078;-69
2023/04/22 03:42:49;;;;;;;6.10;2.63;;;10.80;68.90;;;;;;4987193;28;20051;-69
2023/04/22 03:45:18;;;;;;;5.47;3.10;;;10.70;68.80;;;;;;4989180;28;20275;-69
2023/04/22 03:47:51;;;;;;;9.23;3.17;;;10.60;69.10;;;;;;4988933;28;20541;-69
2023/04/22 03:50:23;;;;;;;4.47;2.65;;;10.60;69.30;;;;;;4988300;28;20051;-69
2023/04/22 03:52:52;;;;;;;4.45;2.80;;;10.60;69.40;;;;;;5005044;28;20125;-69
2023/04/22 03:55:22;;;;;;;4.20;2.20;;;10.60;69.40;;;;;;4988628;28;20075;-69
2023/04/22 03:57:52;;;;;;;4.60;2.55;;;10.60;69.60;;;;;;4988702;28;20299;-69
2023/04/22 04:00:20;;;;;;;4.00;2.00;;;10.50;69.60;;;;;;4985560;28;20051;-69
2023/04/22 04:02:54;;;;;;;3.28;1.80;;;10.50;69.50;;;;;;4988361;28;20051;-69
2023/04/22 04:05:25;;;;;;;3.67;1.90;;;10.50;69.40;;;;;;4969394;28;20051;-69
2023/04/22 04:07:52;;;;;;;3.70;2.10;;;10.50;69.40;;;;;;4985447;28;20602;-69
2023/04/22 04:10:19;;;;;;;3.28;1.80;;;10.40;69.30;;;;;;4989201;28;20362;-69
2023/04/22 04:12:49;;;;;;;4.32;2.28;;;10.40;69.30;;;;;;5005225;28;20496;-69
2023/04/22 04:15:17;;;;;;;4.53;2.17;;;10.40;69.30;;;;;;5004838;28;20051;-69
2023/04/22 04:17:46;;;;;;;5.05;2.33;;;10.40;69.30;;;;;;4986197;28;20046;-69
2023/04/22 04:20:15;;;;;;;4.00;1.90;;;10.40;69.20;;;;;;4987493;28;20046;-69
2023/04/22 04:22:42;;;;;;;4.03;1.80;;;10.40;69.10;;;;;;4988437;28;20335;-69
2023/04/22 04:25:10;;;;;;;4.85;1.60;;;10.40;69.10;;;;;;4985367;28;20469;-69
2023/04/22 04:27:41;;;;;;;3.90;1.88;;;10.30;69.00;;;;;;4985210;28;20054;-69
2023/04/22 04:30:13;;;;;;;6.43;2.20;;;10.30;68.60;;;;;;4987552;28;20054;-69
2023/04/22 04:32:47;;;;;;;4.40;2.00;;;10.10;68.80;;;;;;4970764;28;20074;-69
2023/04/22 04:35:17;;;;;;;4.65;2.80;;;10.10;68.90;;;;;;5004043;28;20279;-69
2023/04/22 04:37:49;;;;;;;5.35;2.90;;;10.00;69.00;;;;;;4987063;28;20577;-69
2023/04/22 04:40:17;;;;;;;4.80;2.90;;;10.00;69.20;;;;;;4987221;28;20051;-69
2023/04/22 04:43:07;;;;;;;5.22;2.65;;;10.00;69.30;;;;;;4986650;28;20055;-69
2023/04/22 04:45:45;;;;;;;5.10;2.50;;;10.00;69.30;;;;;;4988028;28;20054;-70
2023/04/22 04:48:14;;;;;;;4.63;2.60;;;10.00;69.40;;;;;;4987557;28;20286;-69
2023/04/22 04:50:46;;;;;;;8.63;5.57;;;9.90;69.40;;;;;;4985386;28;20109;-69
2023/04/22 04:53:13;;;;;;;8.30;5.53;;;9.90;69.60;;;;;;4987881;28;20101;-69
2023/04/22 04:55:44;;;;;;;9.10;6.50;;;9.80;70.30;;;;;;4988228;28;20050;-69
2023/04/22 04:58:19;;;;;;;7.93;4.90;;;9.80;70.50;;;;;;4988210;28;20051;-69
2023/04/22 05:00:51;;;;;;;11.13;7.43;;;9.80;70.90;;;;;;4987198;28;20274;-69
2023/04/22 05:03:19;;;;;;;9.43;6.57;;;9.80;71.20;;;;;;4988113;28;20054;-69
2023/04/22 05:05:48;;;;;;;9.75;6.50;;;9.80;71.80;;;;;;4987981;28;20420;-69
2023/04/22 05:08:15;;;;;;;9.48;6.25;;;9.70;72.20;;;;;;4985149;28;20091;-69
2023/04/22 05:10:44;;;;;;;8.90;6.50;;;9.70;72.40;;;;;;4987002;28;20051;-69
2023/04/22 05:13:11;;;;;;;10.32;6.32;;;9.70;72.20;;;;;;4987799;28;20254;-69
2023/04/22 05:15:41;;;;;;;8.73;5.97;;;9.80;72.10;;;;;;4987655;28;20058;-69
2023/04/22 05:18:10;;;;;;;9.05;6.10;;;9.70;72.00;;;;;;5004112;28;20052;-69
2023/04/22 05:20:37;;;;;;;9.13;6.25;;;9.80;72.20;;;;;;4987187;28;20052;-69
2023/04/22 05:23:05;;;;;;;11.17;6.93;;;9.70;72.00;;;;;;4983714;28;20502;-69
2023/04/22 05:25:32;;;;;;;10.05;6.55;;;9.70;72.10;;;;;;4971603;28;20251;-69
2023/04/22 05:28:05;;;;;;;9.27;5.88;;;9.80;72.10;;;;;;4987116;28;20046;-69
2023/04/22 05:30:40;;;;;;;9.57;6.47;;;9.80;72.30;;;;;;4986860;28;20061;-70
2023/04/22 05:33:08;;;;;;;8.95;6.20;;;9.80;72.80;;;;;;4987729;28;20057;-69
2023/04/22 05:35:37;;;;;;;10.70;6.77;;;9.80;73.20;;;;;;5004129;28;20047;-69
2023/04/22 05:38:04;;;;;;;10.65;7.28;;;9.80;73.40;;;;;;5003722;28;20278;-69
2023/04/22 05:40:33;;;;;;;10.63;6.72;;;9.80;73.30;;;;;;4984225;28;20062;-69
2023/04/22 05:43:02;;;;;;;11.10;6.95;;;9.80;73.10;;;;;;4987486;28;20051;-69
2023/04/22 05:45:29;;;;;;;11.90;7.32;;;9.80;72.80;;;;;;4987041;28;20047;-69
2023/04/22 05:47:56;;;;;;;11.17;7.70;;;9.80;73.00;;;;;;4986810;28;20204;-69
2023/04/22 05:50:26;;;;;;;10.95;7.85;;;9.80;72.60;;;;;;4986716;28;20258;-69
2023/04/22 05:53:00;;;;;;;11.55;7.75;;;9.80;73.10;;;;;;4987278;28;20051;-69
2023/04/22 05:55:28;;;;;;;13.63;8.85;;;9.80;72.80;;;;;;4987054;28;20118;-69
2023/04/22 05:57:55;;;;;;;14.68;9.90;;;9.80;73.90;;;;;;4984981;28;20047;-69
2023/04/22 06:00:39;;;;;;;14.33;9.33;;;9.80;74.70;;;;;;4986134;28;20046;-69
2023/04/22 06:03:29;;;;;;;13.70;9.05;;;9.90;75.30;;;;;;4987085;28;20978;-69
2023/04/22 06:05:57;;;;;;;13.60;9.57;;;9.90;75.80;;;;;;4987229;28;20085;-69
2023/04/22 06:08:25;;;;;;;13.68;9.43;;;10.00;76.00;;;;;;5003432;28;20050;-69
2023/04/22 06:10:52;;;;;;;14.80;9.73;;;10.00;76.10;;;;;;4986809;28;20061;-69
2023/04/22 06:13:21;;;;;;;15.77;9.90;;;10.00;76.50;;;;;;4984206;28;20433;-70
2023/04/22 06:15:48;;;;;;;14.18;9.68;;;10.00;77.00;;;;;;4986440;28;20251;-69
2023/04/22 06:18:15;;;;;;;14.95;10.00;;;10.00;77.20;;;;;;4987013;28;20137;-69
2023/04/22 06:20:41;;;;;;;15.63;10.60;;;10.00;77.10;;;;;;4986077;28;20057;-69
2023/04/22 06:23:08;;;;;;;14.93;10.20;;;10.00;76.80;;;;;;4983421;28;20052;-69
2023/04/22 06:25:37;;;;;;;14.07;10.00;;;10.10;77.60;;;;;;4970363;28;20066;-69
2023/04/22 06:28:04;;;;;;;14.52;9.82;;;10.10;78.00;;;;;;4986832;28;20808;-70
2023/04/22 06:30:34;;;;;;;15.40;10.15;;;10.10;77.60;;;;;;4983727;28;20155;-69
2023/04/22 06:33:01;;;;;;;16.33;10.57;;;10.20;78.00;;;;;;4986853;28;20050;-69
2023/04/22 06:35:28;;;;;;;14.63;9.82;;;10.20;78.00;;;;;;4986929;28;20112;-69
2023/04/22 06:38:00;;;;;;;15.80;10.03;;;10.30;78.20;;;;;;4986607;28;20055;-69
2023/04/22 06:40:33;;;;;;;13.45;9.75;;;10.30;78.20;;;;;;4999229;28;20275;-70
2023/04/22 06:43:14;;;;;;;15.68;10.07;;;10.40;78.60;;;;;;4967538;28;20057;-69
2023/04/22 06:46:01;;;;;;;14.60;9.68;;;10.40;78.80;;;;;;4974504;28;20053;-69
2023/04/22 06:48:39;;;;;;;14.05;10.00;;;10.50;79.00;;;;;;4967302;28;20534;-69
2023/04/22 06:51:17;;;;;;;12.93;9.50;;;10.50;79.30;;;;;;4983426;28;20160;-69
2023/04/22 06:53:45;;;;;;;16.42;10.27;;;10.60;79.10;;;;;;4967186;28;20251;-69
2023/04/22 06:56:16;;;;;;;16.20;10.65;;;10.60;79.40;;;;;;4983255;28;20051;-70
2023/04/22 06:58:44;;;;;;;15.82;10.18;;;10.70;79.50;;;;;;4999237;28;20544;-69
2023/04/22 07:01:11;;;;;;;16.27;9.80;;;10.70;79.70;;;;;;5001359;28;20736;-69
2023/04/22 07:03:40;;;;;;;13.60;9.20;;;10.70;79.60;;;;;;4987484;28;20047;-69
2023/04/22 07:06:10;;;;;;;15.65;10.43;;;10.80;79.70;;;;;;4990183;28;20255;-70
2023/04/22 07:08:39;;;;;;;16.75;10.43;;;10.80;79.70;;;;;;4989843;28;20125;-69
2023/04/22 07:11:06;;;;;;;16.92;10.27;;;10.90;80.20;;;;;;4988324;28;20062;-70
2023/04/22 07:13:44;;;;;;;14.05;9.77;;;10.90;80.10;;;;;;4974476;28;20046;-70
2023/04/22 07:16:11;;;;;;;16.03;9.73;;;11.00;80.10;;;;;;4991246;28;20429;-70
2023/04/22 07:18:38;;;;;;;16.55;9.68;;;11.00;80.10;;;;;;4989708;28;20311;-70
2023/04/22 07:21:05;;;;;;;14.85;9.75;;;11.10;80.10;;;;;;4986941;28;20501;-70
2023/04/22 07:23:32;;;;;;;15.45;9.98;;;11.10;80.30;;;;;;5004609;28;20047;-70
2023/04/22 07:25:59;;;;;;;14.43;9.63;;;11.10;80.20;;;;;;4989608;28;20043;-69
2023/04/22 07:28:26;;;;;;;14.87;10.37;;;11.20;80.30;;;;;;4982664;28;20578;-70
2023/04/22 07:30:55;;;;;;;16.48;9.93;;;11.30;80.40;;;;;;5005291;28;20259;-70
2023/04/22 07:33:22;;;;;;;16.55;9.88;;;11.30;80.70;;;;;;4990823;28;20055;-69
2023/04/22 07:35:49;;;;;;;15.20;9.80;;;11.40;80.50;;;;;;4989344;28;20057;-70
2023/04/22 07:38:16;;;;;;;14.73;9.80;;;11.50;80.50;;;;;;4983949;28;20217;-69
2023/04/22 07:40:43;;;;;;;15.00;9.53;;;11.50;80.60;;;;;;4969353;28;20061;-70
2023/04/22 07:43:10;;;;;;;14.23;9.25;;;11.50;80.80;;;;;;4980524;28;20320;-70
2023/04/22 07:45:37;;;;;;;14.57;9.48;;;11.60;80.70;;;;;;4984168;28;20081;-70
2023/04/22 07:48:05;;;;;;;14.98;9.65;;;11.70;80.60;;;;;;4989469;28;20811;-69
2023/04/22 07:50:32;;;;;;;13.10;8.98;;;11.70;80.80;;;;;;4988616;28;20680;-70
2023/04/22 07:52:59;;;;;;;14.00;9.00;;;11.70;80.60;;;;;;4990626;28;20484;-70
2023/04/22 07:55:26;;;;;;;14.63;9.23;;;11.80;80.60;;;;;;4986461;28;20279;-70
2023/04/22 07:57:53;;;;;;;14.55;9.90;;;11.90;80.70;;;;;;4989970;28;20129;-70
2023/04/22 08:00:20;;;;;;;13.93;8.98;;;11.90;80.70;;;;;;4988266;28;20047;-70
2023/04/22 08:02:47;;;;;;;14.30;8.98;;;11.90;80.90;;;;;;4983916;28;20063;-70
2023/04/22 08:05:16;;;;;;;14.63;8.77;;;12.00;80.80;;;;;;4969880;28;20047;-69
2023/04/22 08:07:42;;;;;;;13.45;8.88;;;12.10;80.70;;;;;;4979793;28;20289;-70
2023/04/22 08:10:10;;;;;;;13.80;8.98;;;12.20;80.80;;;;;;4985260;28;20062;-70
2023/04/22 08:12:37;;;;;;;12.48;8.13;;;12.20;80.90;;;;;;4988939;28;20634;-70
2023/04/22 08:15:05;;;;;;;11.80;7.88;;;12.30;80.70;;;;;;4990211;28;20138;-70
2023/04/22 08:17:32;;;;;;;13.33;8.63;;;12.40;80.60;;;;;;4990491;28;20077;-70
2023/04/22 08:19:59;;;;;;;13.38;8.45;;;12.50;80.50;;;;;;4987480;28;20282;-70
2023/04/22 08:22:27;;;;;;;13.15;8.60;;;12.50;80.40;;;;;;5001937;28;20051;-70
2023/04/22 08:24:54;;;;;;;13.32;8.10;;;12.50;80.60;;;;;;4969230;28;20047;-70
2023/04/22 08:27:21;;;;;;;11.70;7.90;;;12.60;80.40;;;;;;4985850;28;20057;-70
2023/04/22 08:29:48;;;;;;;12.80;8.57;;;12.70;80.20;;;;;;5004311;28;20620;-70
2023/04/22 08:32:15;;;;;;;12.07;7.70;;;12.80;79.90;;;;;;4990418;28;20819;-70
2023/04/22 08:34:42;;;;;;;11.98;8.05;;;12.90;80.00;;;;;;4987853;28;20047;-70
2023/04/22 08:37:09;;;;;;;12.52;8.60;;;12.90;79.80;;;;;;4988726;28;20130;-70
2023/04/22 08:39:37;;;;;;;13.35;7.57;;;13.00;80.00;;;;;;4987656;28;20066;-70
2023/04/22 08:42:05;;;;;;;11.90;7.80;;;13.10;80.00;;;;;;4990036;28;20142;-70
2023/04/22 08:44:32;;;;;;;11.35;7.72;;;13.10;79.70;;;;;;4987515;28;20284;-70
2023/04/22 08:47:01;;;;;;;12.73;8.57;;;13.20;79.80;;;;;;4990327;28;20579;-70
2023/04/22 08:49:30;;;;;;;12.30;7.80;;;13.30;79.80;;;;;;4976771;28;20069;-70
2023/04/22 08:51:57;;;;;;;11.27;7.50;;;13.30;79.70;;;;;;4979317;28;20166;-70
2023/04/22 08:54:24;;;;;;;13.10;7.80;;;13.50;79.50;;;;;;4989823;28;20047;-70
2023/04/22 08:56:54;;;;;;;10.88;7.65;;;13.50;79.00;;;;;;4988394;28;20486;-70
2023/04/22 08:59:22;;;;;;;13.25;8.63;;;13.60;78.70;;;;;;5003603;28;20051;-70
2023/04/22 09:01:53;;;;;;;12.98;8.65;;;13.70;78.70;;;;;;4986795;28;20057;-70
2023/04/22 09:04:20;;;;;;;11.88;7.53;;;13.90;78.90;;;;;;5004369;28;20513;-70
2023/04/22 09:06:46;;;;;;;11.83;7.40;;;13.90;79.40;;;;;;4987901;28;20055;-70
2023/04/22 09:09:14;;;;;;;11.45;7.63;;;14.00;78.80;;;;;;4987194;28;20303;-70
2023/04/22 09:11:41;;;;;;;12.52;7.80;;;14.10;78.60;;;;;;4970525;28;20053;-70
2023/04/22 09:14:09;;;;;;;11.77;7.80;;;14.20;78.30;;;;;;4974522;28;20063;-70
2023/04/22 09:16:41;;;;;;;12.50;8.43;;;14.30;78.30;;;;;;4986250;28;20687;-70
2023/04/22 09:19:11;;;;;;;13.87;8.37;;;14.40;78.00;;;;;;4968724;28;20793;-70
2023/04/22 09:21:40;;;;;;;11.32;6.88;;;14.50;78.00;;;;;;4968807;28;20283;-71
2023/04/22 09:24:08;;;;;;;11.50;7.70;;;14.60;77.10;;;;;;4986958;28;20074;-71
2023/04/22 09:26:39;;;;;;;11.25;7.18;;;14.70;76.60;;;;;;4987407;28;20515;-70
2023/04/22 09:29:08;;;;;;;12.55;7.32;;;14.80;76.40;;;;;;4986898;28;20110;-70
2023/04/22 09:31:37;;;;;;;11.93;7.40;;;14.90;76.20;;;;;;4987589;28;20066;-70
2023/04/22 09:34:04;;;;;;;11.90;7.75;;;15.00;76.50;;;;;;4966527;28;20255;-70
2023/04/22 09:36:36;;;;;;;12.23;7.28;;;15.10;76.00;;;;;;4968123;28;20600;-70
2023/04/22 09:39:05;;;;;;;12.35;7.32;;;15.20;75.90;;;;;;4988156;28;20425;-70
2023/04/22 09:41:34;;;;;;;10.63;6.38;;;15.30;75.30;;;;;;5003667;28;20046;-70
2023/04/22 09:44:02;;;;;;;11.00;7.30;;;15.40;74.60;;;;;;4988373;28;20061;-70
2023/04/22 09:46:30;;;;;;;10.80;6.97;;;15.40;74.40;;;;;;4986858;28;20905;-70
2023/04/22 09:48:59;;;;;;;12.35;7.72;;;15.50;74.50;;;;;;4986265;28;20043;-70
2023/04/22 09:51:27;;;;;;;10.70;7.20;;;15.60;74.60;;;;;;4985120;28;20050;-70
2023/04/22 09:53:59;;;;;;;10.80;7.63;;;15.60;74.80;;;;;;5003377;28;20051;-71
2023/04/22 09:56:47;;;;;;;10.53;7.27;;;15.70;75.10;;;;;;4988429;28;20058;-70
2023/04/22 09:59:15;;;;;;;10.57;7.18;;;15.80;74.60;;;;;;4968322;28;20270;-71
2023/04/22 10:01:42;;;;;;;8.85;6.30;;;15.80;74.50;;;;;;4967024;28;20055;-70
2023/04/22 10:04:13;;;;;;;10.27;6.70;;;15.90;74.00;;;;;;4986315;28;20137;-70
2023/04/22 10:06:41;;;;;;;10.25;6.43;;;16.00;73.00;;;;;;4988732;28;20054;-71
2023/04/22 10:09:08;;;;;;;11.20;7.07;;;16.00;73.00;;;;;;4984635;28;20136;-70
2023/04/22 10:11:36;;;;;;;10.82;6.75;;;16.10;73.00;;;;;;4988198;28;20361;-70
2023/04/22 10:14:04;;;;;;;10.25;6.82;;;16.20;72.90;;;;;;4987763;28;20051;-70
2023/04/22 10:16:33;;;;;;;11.77;6.88;;;16.30;73.00;;;;;;4972233;28;20047;-71
2023/04/22 10:19:03;;;;;;;11.55;7.43;;;16.40;73.00;;;;;;4983327;28;20047;-71
2023/04/22 10:21:33;;;;;;;10.63;6.80;;;16.50;72.90;;;;;;4986919;28;20137;-71
2023/04/22 10:24:00;;;;;;;12.35;7.40;;;16.60;72.80;;;;;;4999802;28;20400;-71
2023/04/22 10:26:48;;;;;;;9.68;6.45;;;16.70;72.60;;;;;;4986546;28;20061;-70
2023/04/22 10:29:17;;;;;;;9.23;5.90;;;16.80;72.70;;;;;;4986042;28;20054;-71
2023/04/22 10:31:45;;;;;;;9.82;6.80;;;16.90;72.60;;;;;;4979606;28;20552;-70
2023/04/22 10:34:13;;;;;;;11.00;7.57;;;17.00;71.50;;;;;;4983329;28;20055;-71
2023/04/22 10:37:01;;;;;;;9.88;6.82;;;17.00;71.20;;;;;;4987974;28;20283;-70
2023/04/22 10:39:29;;;;;;;9.95;7.10;;;17.20;70.30;;;;;;4966536;28;20051;-71
2023/04/22 10:42:09;;;;;;;10.15;6.90;;;17.20;70.50;;;;;;4980752;28;20057;-71
2023/04/22 10:44:52;;;;;;;12.05;7.70;;;17.30;70.30;;;;;;5002788;28;20055;-71
2023/04/22 10:47:26;;;;;;;11.13;7.37;;;17.40;69.60;;;;;;4967194;28;20048;-70
2023/04/22 10:50:10;;;;;;;11.43;7.45;;;17.40;69.60;;;;;;4971281;28;20261;-71
2023/04/22 10:52:38;;;;;;;11.00;7.38;;;17.50;70.30;;;;;;5002636;28;20149;-71
2023/04/22 10:55:06;;;;;;;9.38;7.00;;;17.50;70.40;;;;;;4987794;28;20051;-71
2023/04/22 10:57:40;;;;;;;9.38;6.80;;;17.60;70.40;;;;;;4980772;28;20151;-71
2023/04/22 11:00:43;;;;;;;8.97;6.77;;;17.80;69.40;;;;;;4967525;28;20055;-71
2023/04/22 11:03:13;;;;;;;9.27;6.32;;;17.80;68.40;;;;;;5002287;28;20267;-71
2023/04/22 11:05:40;;;;;;;10.43;6.68;;;17.90;68.70;;;;;;4987661;28;20050;-71
2023/04/22 11:08:13;;;;;;;11.32;6.30;;;18.00;66.80;;;;;;5002473;28;20063;-70
2023/04/22 11:10:42;;;;;;;10.82;7.20;;;18.00;66.90;;;;;;5001489;28;20059;-71
2023/04/22 11:13:11;;;;;;;9.00;6.07;;;18.10;66.20;;;;;;4986083;28;20635;-71
2023/04/22 11:15:43;;;;;;;9.43;6.30;;;18.10;66.50;;;;;;4965432;28;20762;-71
2023/04/22 11:18:13;;;;;;;8.95;6.15;;;18.20;66.70;;;;;;4967017;28;20489;-71
2023/04/22 11:20:40;;;;;;;9.82;6.07;;;18.20;66.80;;;;;;4984463;28;20548;-71
2023/04/22 11:23:09;;;;;;;8.50;6.35;;;18.30;65.50;;;;;;4986109;28;20050;-71
2023/04/22 11:25:36;;;;;;;8.97;6.00;;;18.40;64.00;;;;;;4987138;28;20055;-71
2023/04/22 11:28:03;;;;;;;9.30;6.38;;;18.40;64.50;;;;;;4985927;28;20283;-71
2023/04/22 11:30:31;;;;;;;9.45;5.45;;;18.40;64.50;;;;;;4998648;28;20051;-71
2023/04/22 11:32:59;;;;;;;8.75;5.78;;;18.50;64.10;;;;;;4985923;28;20054;-71
2023/04/22 11:35:29;;;;;;;8.48;5.53;;;18.60;63.90;;;;;;5001662;28;20062;-71
2023/04/22 11:37:58;;;;;;;9.07;5.90;;;18.60;64.10;;;;;;4984807;28;21102;-71
2023/04/22 11:40:32;;;;;;;8.82;6.10;;;18.70;64.20;;;;;;4982768;28;20273;-71
2023/04/22 11:43:00;;;;;;;9.32;6.82;;;18.80;63.30;;;;;;4985996;28;20051;-71
2023/04/22 11:45:28;;;;;;;10.45;6.40;;;18.80;63.10;;;;;;4987385;28;20055;-71
2023/04/22 11:47:55;;;;;;;9.18;6.35;;;18.90;63.20;;;;;;4984113;28;20488;-71
2023/04/22 11:50:23;;;;;;;8.43;6.03;;;18.90;63.30;;;;;;4968724;28;20051;-71
2023/04/22 11:52:53;;;;;;;9.02;6.50;;;19.00;63.00;;;;;;4974808;28;20252;-71
2023/04/22 11:55:22;;;;;;;9.43;6.88;;;19.10;62.40;;;;;;4974108;28;20046;-71
2023/04/22 11:57:56;;;;;;;9.32;6.90;;;19.10;62.00;;;;;;4985150;28;20047;-71
2023/04/22 12:00:24;;;;;;;9.50;6.47;;;19.10;62.30;;;;;;4968666;28;20058;-71
2023/04/22 12:02:59;;;;;;;10.27;6.57;;;19.10;62.60;;;;;;4974386;28;20083;-71
2023/04/22 12:05:36;;;;;;;11.88;7.13;;;19.20;62.50;;;;;;4984703;28;20346;-71
2023/04/22 12:08:06;;;;;;;10.65;6.57;;;19.20;62.30;;;;;;5005264;28;20535;-71
2023/04/22 12:10:33;;;;;;;9.65;6.68;;;19.20;62.70;;;;;;4988404;28;20291;-71
2023/04/22 12:13:02;;;;;;;8.50;6.60;;;19.20;62.90;;;;;;4988705;28;20082;-71
2023/04/22 12:15:41;;;;;;;9.03;6.30;;;19.30;63.30;;;;;;4970607;28;20146;-71
2023/04/22 12:18:09;;;;;;;9.60;6.35;;;19.30;63.20;;;;;;4978881;28;20743;-71
2023/04/22 12:20:36;;;;;;;9.38;6.20;;;19.30;62.70;;;;;;4984824;28;20051;-71
2023/04/22 12:23:04;;;;;;;10.32;6.30;;;19.40;61.90;;;;;;4990323;28;20801;-71
2023/04/22 12:25:32;;;;;;;8.30;6.22;;;19.40;62.20;;;;;;4990167;28;20762;-71
2023/04/22 12:28:03;;;;;;;10.00;6.77;;;19.40;62.40;;;;;;4990364;28;20055;-71
2023/04/22 12:30:30;;;;;;;9.88;6.30;;;19.50;62.40;;;;;;4987357;28;20278;-71
2023/04/22 12:32:57;;;;;;;10.02;6.53;;;19.50;61.90;;;;;;4988188;28;20584;-71
2023/04/22 12:35:25;;;;;;;10.00;6.82;;;19.60;61.40;;;;;;4988754;28;20492;-71
2023/04/22 12:37:52;;;;;;;9.18;6.47;;;19.60;61.20;;;;;;5001942;28;20057;-71
2023/04/22 12:40:19;;;;;;;9.50;6.47;;;19.70;61.40;;;;;;4987871;28;20551;-71
2023/04/22 12:42:46;;;;;;;10.02;7.13;;;19.70;61.40;;;;;;4988537;28;20837;-71
2023/04/22 12:45:15;;;;;;;11.02;7.15;;;19.70;60.00;;;;;;4989543;28;20153;-71
2023/04/22 12:47:43;;;;;;;9.95;7.05;;;19.70;60.40;;;;;;4969994;28;20150;-71
2023/04/22 12:50:10;;;;;;;9.57;6.63;;;19.70;60.30;;;;;;4969674;28;20050;-71
2023/04/22 12:52:37;;;;;;;9.70;6.97;;;19.60;60.40;;;;;;4989155;28;20058;-71